Time;durP1;ratioP1;P1;durP2;ratioP2;P2;SDS_P1;SDS_P2;PMS_P1;PMS_P2;Temp;Humidity;BMP_temperature;BMP_pressure;BME280_temperature;BME280_humidity;BME280_pressure;Samples;Min_cycle;Max_cycle;Signal;HPM_P1;HPM_P2
2022/04/22 17:30:13;;;;;;;6.18;2.40;;;19.90;41.50;;;;;;5104230;27;20415;-78
2022/04/22 17:32:43;;;;;;;7.20;2.70;;;19.90;41.10;;;;;;5093329;28;20513;-89
2022/04/22 17:35:10;;;;;;;3.03;2.35;;;20.10;40.90;;;;;;5099954;28;20035;-76
2022/04/22 17:37:36;;;;;;;3.40;2.40;;;20.30;40.90;;;;;;5077069;28;20039;-76
2022/04/22 17:40:04;;;;;;;5.30;2.30;;;20.60;39.90;;;;;;5065467;28;20123;-76
2022/04/22 17:42:31;;;;;;;3.90;2.50;;;20.80;40.00;;;;;;5093502;28;20036;-80
2022/04/22 17:44:58;;;;;;;3.55;2.50;;;20.80;40.20;;;;;;5089351;28;20142;-79
2022/04/22 17:47:24;;;;;;;4.75;2.72;;;20.80;39.90;;;;;;5091303;28;20024;-79
2022/04/22 17:49:51;;;;;;;4.82;2.45;;;20.80;39.80;;;;;;5091083;28;20399;-79
2022/04/22 17:52:17;;;;;;;6.97;2.60;;;20.90;40.00;;;;;;5092649;28;20469;-78
2022/04/22 17:54:43;;;;;;;3.78;2.55;;;20.90;39.80;;;;;;5074197;28;20067;-80
2022/04/22 17:57:09;;;;;;;4.47;2.42;;;20.80;39.90;;;;;;5071931;28;20013;-81
2022/04/22 17:59:38;;;;;;;5.47;2.47;;;20.80;39.90;;;;;;5092343;28;20104;-77
2022/04/22 18:02:09;;;;;;;4.07;2.80;;;20.80;40.20;;;;;;5092490;28;20024;-78
2022/04/22 18:04:40;;;;;;;5.63;2.67;;;20.70;40.30;;;;;;5092273;28;20081;-79
2022/04/22 18:07:06;;;;;;;4.47;2.70;;;20.50;41.50;;;;;;5080432;28;20037;-76
2022/04/22 18:09:31;;;;;;;4.13;2.83;;;20.50;40.90;;;;;;5072434;28;20028;-80
2022/04/22 18:11:57;;;;;;;4.03;3.00;;;20.30;41.00;;;;;;5091299;28;20039;-76
2022/04/22 18:17:08;;;;;;;5.45;2.20;;;20.30;41.00;;;;;;5103199;28;20513;-79
2022/04/22 18:19:34;;;;;;;2.97;2.40;;;20.20;41.10;;;;;;5100628;28;20099;-82
2022/04/22 18:22:02;;;;;;;3.63;2.72;;;20.20;41.00;;;;;;5104646;28;20035;-87
2022/04/22 18:24:27;;;;;;;4.95;2.42;;;20.10;41.20;;;;;;5080000;28;20036;-79
2022/04/22 18:27:10;;;;;;;5.10;2.22;;;20.00;41.20;;;;;;5090919;28;20118;-87
2022/04/22 18:29:36;;;;;;;3.55;2.28;;;20.00;41.40;;;;;;5104847;28;20047;-82
2022/04/22 18:32:02;;;;;;;5.10;2.20;;;19.90;41.70;;;;;;5070741;28;20032;-79
2022/04/22 18:34:28;;;;;;;4.75;2.42;;;19.80;41.70;;;;;;5084287;28;20076;-81
2022/04/22 18:36:54;;;;;;;4.72;2.40;;;19.80;41.90;;;;;;5092351;28;20039;-79
2022/04/22 18:39:20;;;;;;;4.22;2.60;;;19.70;42.10;;;;;;5103838;28;20027;-78
2022/04/22 18:41:46;;;;;;;7.10;2.35;;;19.70;42.20;;;;;;5052294;28;20040;-82
2022/04/22 18:44:12;;;;;;;3.33;2.63;;;19.60;42.20;;;;;;5050963;28;20032;-82
2022/04/22 18:46:38;;;;;;;2.85;2.55;;;19.50;42.40;;;;;;5051220;28;20039;-80
2022/04/22 18:49:07;;;;;;;3.10;2.25;;;19.40;42.60;;;;;;5050063;28;20100;-79
2022/04/22 18:51:36;;;;;;;2.47;2.28;;;19.30;42.80;;;;;;5062317;28;20939;-80
2022/04/22 18:54:08;;;;;;;2.45;2.10;;;19.30;42.90;;;;;;5057365;28;20083;-79
2022/04/22 18:56:37;;;;;;;4.07;2.55;;;19.10;43.40;;;;;;5051329;28;20025;-80
2022/04/22 18:59:04;;;;;;;4.70;2.42;;;19.10;43.40;;;;;;5078113;28;20055;-81
2022/04/22 19:01:29;;;;;;;3.03;2.30;;;19.00;43.50;;;;;;5068881;28;20020;-81
2022/04/22 19:03:56;;;;;;;3.28;2.47;;;19.00;43.70;;;;;;5077583;28;20039;-81
2022/04/22 19:06:22;;;;;;;4.63;2.85;;;18.90;43.90;;;;;;5074979;28;20036;-83
2022/04/22 19:08:48;;;;;;;5.53;2.65;;;18.80;43.90;;;;;;5077597;28;20043;-80
2022/04/22 19:11:14;;;;;;;3.58;2.70;;;18.80;44.20;;;;;;5078330;28;20017;-80
2022/04/22 19:13:44;;;;;;;3.75;2.78;;;18.80;44.30;;;;;;5075430;28;20020;-80
2022/04/22 19:16:10;;;;;;;5.13;3.08;;;18.70;44.40;;;;;;5077691;28;20166;-80
2022/04/22 19:18:39;;;;;;;8.40;4.15;;;18.60;44.70;;;;;;5073780;28;20064;-81
2022/04/22 19:21:11;;;;;;;3.78;3.22;;;18.70;44.70;;;;;;5074633;28;20033;-81
2022/04/22 19:23:40;;;;;;;4.70;3.28;;;18.60;44.80;;;;;;5077475;28;20051;-80
2022/04/22 19:26:06;;;;;;;4.43;2.85;;;18.60;44.80;;;;;;5075176;28;20105;-79
2022/04/22 19:28:32;;;;;;;3.92;2.58;;;18.70;44.90;;;;;;5077276;28;20064;-80
2022/04/22 19:30:58;;;;;;;4.13;2.80;;;18.50;45.50;;;;;;5080775;28;20024;-79
2022/04/22 19:33:23;;;;;;;4.53;3.42;;;18.40;45.70;;;;;;5068368;28;20029;-79
2022/04/22 19:35:49;;;;;;;5.68;2.95;;;18.40;46.00;;;;;;5068001;28;20608;-77
2022/04/22 19:40:59;;;;;;;5.88;3.85;;;18.20;46.80;;;;;;5078679;28;20024;-76
2022/04/22 19:43:27;;;;;;;4.63;3.15;;;18.00;47.30;;;;;;5074745;28;20028;-77
2022/04/22 19:46:01;;;;;;;7.88;4.03;;;18.00;47.70;;;;;;5074678;28;20020;-76
2022/04/22 19:48:28;;;;;;;4.57;3.28;;;18.00;47.60;;;;;;5078734;28;20024;-78
2022/04/22 19:50:54;;;;;;;5.43;3.15;;;18.00;47.70;;;;;;5075730;28;20497;-78
2022/04/22 19:53:24;;;;;;;3.55;2.78;;;17.90;47.90;;;;;;5074187;28;20029;-79
2022/04/22 19:55:51;;;;;;;;;;;17.90;47.80;;;;;;5074365;28;20107;-78
2022/04/22 19:58:17;;;;;;;6.80;3.33;;;17.90;48.10;;;;;;5071746;28;19954;-79
2022/04/22 20:00:51;;;;;;;6.05;4.10;;;17.80;48.20;;;;;;5084184;28;20032;-77
2022/04/22 20:03:19;;;;;;;8.13;3.33;;;17.70;48.60;;;;;;5065839;28;20043;-79
2022/04/22 20:05:46;;;;;;;7.53;3.70;;;17.70;48.80;;;;;;5054897;28;20035;-79
2022/04/22 20:08:36;;;;;;;6.78;3.40;;;17.60;49.00;;;;;;5054217;28;20025;-78
2022/04/22 20:10:59;;;;;;;4.68;3.60;;;17.70;48.80;;;;;;5070399;28;20032;-78
2022/04/22 20:13:26;;;;;;;4.28;3.10;;;17.70;48.70;;;;;;5071580;28;20520;-78
2022/04/22 20:15:53;;;;;;;4.55;3.20;;;17.80;48.70;;;;;;5072400;28;20033;-77
2022/04/22 20:18:22;;;;;;;5.20;4.50;;;17.60;49.40;;;;;;5068747;28;20060;-78
2022/04/22 20:20:48;;;;;;;6.47;4.57;;;17.60;50.10;;;;;;5079365;28;20502;-79
2022/04/22 20:23:15;;;;;;;7.88;4.63;;;17.50;50.30;;;;;;5073706;28;20025;-79
2022/04/22 20:25:41;;;;;;;7.88;5.25;;;17.50;51.10;;;;;;5078468;28;20028;-79
2022/04/22 20:28:07;;;;;;;8.50;5.38;;;17.40;51.70;;;;;;5080244;28;20169;-79
2022/04/22 20:30:32;;;;;;;9.25;5.45;;;17.40;52.30;;;;;;5080945;28;20438;-79
2022/04/22 20:32:58;;;;;;;10.73;6.32;;;17.40;52.40;;;;;;5083229;28;20016;-78
2022/04/22 20:40:56;;;;;;;11.27;7.28;;;17.20;54.00;;;;;;5083631;28;20073;-79
2022/04/22 20:43:22;;;;;;;10.77;7.40;;;17.20;54.00;;;;;;5085346;28;20399;-78
2022/04/22 20:45:48;;;;;;;10.40;6.72;;;17.20;54.80;;;;;;5080208;28;20024;-78
2022/04/22 20:48:30;;;;;;;14.15;8.30;;;17.00;55.50;;;;;;5081564;28;20017;-80
2022/04/22 20:50:57;;;;;;;14.02;9.18;;;17.00;56.00;;;;;;5078237;28;20028;-79
2022/04/22 20:56:10;;;;;;;11.32;7.82;;;17.00;56.10;;;;;;5079116;28;20095;-78
2022/04/22 20:58:36;;;;;;;10.65;8.63;;;16.90;56.50;;;;;;5077886;28;20028;-78
2022/04/22 21:01:05;;;;;;;17.73;9.18;;;16.80;57.10;;;;;;5091645;28;20024;-78
2022/04/22 21:03:32;;;;;;;11.98;8.80;;;16.80;56.80;;;;;;5074901;28;20102;-78
2022/04/22 21:05:58;;;;;;;11.48;8.25;;;16.70;57.70;;;;;;5076640;28;20030;-79
2022/04/22 21:08:24;;;;;;;14.95;8.93;;;16.60;57.90;;;;;;5085295;28;20095;-78
2022/04/22 21:10:50;;;;;;;16.25;9.23;;;16.60;58.10;;;;;;5075429;28;20551;-78
2022/04/22 21:13:16;;;;;;;10.00;8.43;;;16.50;58.10;;;;;;5080842;28;20032;-79
2022/04/22 21:15:42;;;;;;;14.45;8.95;;;16.30;58.80;;;;;;5092389;28;20032;-79
2022/04/22 21:18:08;;;;;;;14.55;9.27;;;16.30;58.60;;;;;;5073767;28;20032;-79
2022/04/22 21:20:35;;;;;;;12.48;8.77;;;16.30;58.70;;;;;;5082455;28;20077;-78
2022/04/22 21:23:01;;;;;;;13.20;8.95;;;16.30;58.80;;;;;;5081925;28;20043;-79
2022/04/22 21:25:27;;;;;;;10.80;8.18;;;16.30;58.40;;;;;;5087756;28;20653;-79
2022/04/22 21:27:53;;;;;;;12.98;8.73;;;16.30;58.20;;;;;;5080650;28;20072;-79
2022/04/22 21:30:19;;;;;;;12.85;9.32;;;16.30;58.40;;;;;;5084077;28;20048;-79
2022/04/22 21:32:46;;;;;;;14.70;8.68;;;16.20;58.80;;;;;;5080909;28;20363;-77
2022/04/22 21:35:13;;;;;;;13.18;8.43;;;16.20;58.80;;;;;;5083027;28;20024;-78
2022/04/22 21:37:43;;;;;;;14.82;9.05;;;16.10;59.00;;;;;;5087897;28;20024;-78
2022/04/22 21:40:10;;;;;;;16.35;9.18;;;16.00;59.60;;;;;;5067412;28;20518;-77
2022/04/22 21:42:37;;;;;;;11.52;8.60;;;16.00;59.40;;;;;;5054136;28;20559;-78
2022/04/22 21:45:20;;;;;;;14.32;9.50;;;16.10;59.00;;;;;;5071460;28;20029;-78
2022/04/22 21:47:46;;;;;;;11.90;7.93;;;16.10;58.90;;;;;;5073786;28;20027;-78
2022/04/22 21:50:11;;;;;;;11.38;8.30;;;16.10;59.00;;;;;;5072955;28;20029;-78
2022/04/22 21:52:37;;;;;;;10.88;7.43;;;16.10;59.00;;;;;;5058931;28;20028;-78
2022/04/22 21:55:03;;;;;;;13.18;8.70;;;16.00;59.30;;;;;;5052650;28;20809;-78
2022/04/22 21:57:29;;;;;;;12.63;7.90;;;15.80;59.80;;;;;;5052641;28;20017;-78
2022/04/22 21:59:54;;;;;;;12.43;7.68;;;15.80;59.70;;;;;;5062116;28;20543;-78
2022/04/22 22:02:22;;;;;;;11.77;8.25;;;15.80;59.90;;;;;;5067433;28;20653;-78
2022/04/22 22:04:48;;;;;;;15.07;8.52;;;15.80;60.00;;;;;;5052652;28;20037;-78
2022/04/22 22:07:14;;;;;;;12.57;7.65;;;15.80;59.90;;;;;;5054319;28;20040;-77
2022/04/22 22:09:40;;;;;;;11.90;7.63;;;15.80;59.90;;;;;;5070010;28;20090;-78
2022/04/22 22:12:06;;;;;;;13.50;7.72;;;15.70;60.40;;;;;;5068409;28;20024;-78
2022/04/22 22:14:33;;;;;;;11.63;8.18;;;15.60;60.60;;;;;;5074485;28;20025;-78
2022/04/22 22:17:04;;;;;;;12.82;8.55;;;15.60;60.80;;;;;;5064936;28;20021;-78
2022/04/22 22:19:33;;;;;;;12.23;8.00;;;15.60;60.40;;;;;;5058149;28;20017;-79
2022/04/22 22:22:00;;;;;;;11.53;8.10;;;15.70;60.20;;;;;;5057847;28;20032;-78
2022/04/22 22:24:26;;;;;;;14.02;8.48;;;15.60;60.70;;;;;;5057339;28;20518;-78
2022/04/22 22:26:52;;;;;;;12.13;8.02;;;15.60;60.40;;;;;;5057582;28;20032;-78
2022/04/22 22:29:17;;;;;;;15.13;8.52;;;15.60;60.20;;;;;;5057928;28;20041;-78
2022/04/22 22:31:43;;;;;;;15.30;8.73;;;15.60;60.30;;;;;;5066692;28;20050;-78
2022/04/22 22:34:09;;;;;;;12.25;7.90;;;15.60;60.10;;;;;;5076408;28;20063;-78
2022/04/22 22:36:34;;;;;;;11.52;8.77;;;15.50;60.40;;;;;;5062877;28;20055;-78
2022/04/22 22:39:00;;;;;;;13.10;8.65;;;15.50;60.40;;;;;;5058063;28;20056;-78
2022/04/22 22:41:27;;;;;;;12.85;8.13;;;15.50;60.50;;;;;;5057025;28;20029;-78
2022/04/22 22:43:53;;;;;;;14.30;8.45;;;15.60;60.40;;;;;;5057518;28;20024;-78
2022/04/22 22:46:19;;;;;;;12.98;9.25;;;15.50;60.50;;;;;;5057881;28;20348;-78
2022/04/22 22:48:44;;;;;;;13.85;8.75;;;15.40;60.70;;;;;;5074615;28;20032;-78
2022/04/22 22:51:10;;;;;;;11.45;7.63;;;15.40;60.50;;;;;;5089471;28;20032;-78
2022/04/22 22:53:37;;;;;;;14.77;8.30;;;15.30;60.90;;;;;;5057397;28;20020;-78
2022/04/22 22:56:03;;;;;;;12.73;9.18;;;15.20;61.50;;;;;;5057399;28;20075;-78
2022/04/22 22:58:28;;;;;;;12.90;8.57;;;15.30;61.10;;;;;;5058328;28;21876;-78
2022/04/22 23:00:54;;;;;;;14.48;8.27;;;15.20;61.30;;;;;;5077242;28;20028;-78
2022/04/22 23:03:21;;;;;;;14.02;8.85;;;15.20;61.40;;;;;;5077109;28;20029;-78
2022/04/22 23:05:47;;;;;;;14.48;9.02;;;15.20;61.30;;;;;;5077461;28;20104;-78
2022/04/22 23:08:13;;;;;;;16.95;10.18;;;15.20;61.00;;;;;;5074221;28;20029;-78
2022/04/22 23:10:43;;;;;;;11.93;7.78;;;15.20;61.20;;;;;;5057353;28;20103;-78
2022/04/22 23:13:10;;;;;;;12.82;8.23;;;15.20;61.10;;;;;;5057308;28;20426;-78
2022/04/22 23:15:37;;;;;;;11.65;8.82;;;15.20;60.90;;;;;;5056661;28;20068;-78
2022/04/22 23:18:03;;;;;;;14.45;9.48;;;15.20;61.00;;;;;;5056911;28;20392;-78
2022/04/22 23:20:29;;;;;;;14.25;8.70;;;15.30;60.80;;;;;;5057163;28;20021;-78
2022/04/22 23:22:55;;;;;;;14.85;9.68;;;15.30;60.80;;;;;;5057131;28;20104;-78
2022/04/22 23:25:22;;;;;;;13.68;8.93;;;15.40;60.40;;;;;;5057054;28;20025;-78
2022/04/22 23:27:52;;;;;;;17.65;10.10;;;15.30;60.60;;;;;;5056611;28;20037;-78
2022/04/22 23:30:18;;;;;;;13.27;8.27;;;15.20;61.00;;;;;;5056951;28;20029;-78
2022/04/22 23:32:44;;;;;;;12.77;8.77;;;15.20;61.10;;;;;;5074273;28;20025;-78
2022/04/22 23:35:10;;;;;;;17.08;8.50;;;15.10;61.00;;;;;;5076790;28;20052;-78
2022/04/22 23:37:37;;;;;;;14.43;9.00;;;15.20;60.90;;;;;;5076581;28;20028;-78
2022/04/22 23:40:04;;;;;;;14.00;9.25;;;14.90;61.60;;;;;;5074413;28;20086;-78
2022/04/22 23:42:30;;;;;;;11.38;7.88;;;14.90;61.80;;;;;;5055335;28;20078;-78
2022/04/22 23:44:58;;;;;;;12.77;8.40;;;14.80;61.70;;;;;;5056784;28;20033;-79
2022/04/22 23:47:24;;;;;;;18.20;9.20;;;14.80;61.80;;;;;;5056932;28;20134;-79
2022/04/22 23:49:51;;;;;;;15.43;8.88;;;14.80;62.00;;;;;;5056614;28;20392;-77
2022/04/22 23:52:17;;;;;;;12.15;8.80;;;14.70;62.30;;;;;;5056496;28;20100;-79
2022/04/22 23:54:44;;;;;;;14.93;8.77;;;14.70;62.20;;;;;;5056373;28;20036;-76
2022/04/22 23:57:14;;;;;;;15.85;9.13;;;14.70;62.00;;;;;;5055664;28;20020;-78
2022/04/22 23:59:41;;;;;;;11.40;8.60;;;14.70;62.00;;;;;;5063661;28;20027;-79
